Time;durP1;ratioP1;P1;durP2;ratioP2;P2;SDS_P1;SDS_P2;PMS_P1;PMS_P2;Temp;Humidity;BMP_temperature;BMP_pressure;BME280_temperature;BME280_humidity;BME280_pressure;Samples;Min_cycle;Max_cycle;Signal;HPM_P1;HPM_P2
2023/10/27 00:00:42;;;;;;;18.70;10.23;;;;;;;15.29;97.68;98505.25;5072672;28;20261;-64
2023/10/27 00:03:09;;;;;;;16.30;10.33;;;;;;;15.18;98.01;98505.34;5072163;28;20204;-64
2023/10/27 00:05:36;;;;;;;12.57;10.03;;;;;;;15.18;98.62;98492.78;5072909;28;20265;-64
2023/10/27 00:08:03;;;;;;;20.77;10.70;;;;;;;15.13;99.21;98495.41;5072457;28;20203;-64
2023/10/27 00:10:31;;;;;;;21.77;10.43;;;;;;;15.14;98.95;98496.22;5073026;28;20196;-63
2023/10/27 00:12:58;;;;;;;24.10;10.80;;;;;;;15.09;97.94;98505.00;5072473;28;20573;-63
2023/10/27 00:15:24;;;;;;;22.20;9.17;;;;;;;15.03;98.34;98505.19;5072600;28;20635;-64
2023/10/27 00:17:51;;;;;;;22.83;9.70;;;;;;;14.96;98.55;98504.53;5072502;28;20219;-63
2023/10/27 00:20:18;;;;;;;22.50;10.83;;;;;;;14.88;99.01;98497.78;5072398;28;20243;-64
2023/10/27 00:22:44;;;;;;;17.13;10.53;;;;;;;14.95;99.54;98509.06;5071799;28;20261;-64
2023/10/27 00:25:12;;;;;;;17.87;9.77;;;;;;;14.90;99.71;98506.34;5072259;28;20192;-63
2023/10/27 00:27:40;;;;;;;14.37;10.30;;;;;;;14.92;99.92;98506.09;5071848;28;20224;-63
2023/10/27 00:30:09;;;;;;;15.60;9.10;;;;;;;14.95;99.34;98500.25;5072542;28;20581;-63
2023/10/27 00:32:36;;;;;;;15.33;8.67;;;;;;;14.94;99.53;98512.00;5071846;28;20667;-64
2023/10/27 00:35:04;;;;;;;21.10;10.40;;;;;;;14.83;98.99;98516.41;5072392;28;20241;-64
2023/10/27 00:37:33;;;;;;;19.93;9.10;;;;;;;14.74;98.20;98512.53;5072312;28;20199;-64
2023/10/27 00:40:00;;;;;;;14.73;9.13;;;;;;;14.62;98.79;98517.16;5072285;28;20251;-65
2023/10/27 00:42:27;;;;;;;17.87;9.27;;;;;;;14.63;99.45;98521.47;5071829;28;20191;-64
2023/10/27 00:44:55;;;;;;;24.00;9.20;;;;;;;14.52;98.80;98530.41;5071893;28;20257;-64
2023/10/27 00:47:24;;;;;;;12.00;8.40;;;;;;;14.44;99.75;98524.63;5071910;28;20261;-63
2023/10/27 00:49:52;;;;;;;11.43;8.93;;;;;;;14.36;99.97;98517.84;5071804;28;20721;-64
2023/10/27 00:52:19;;;;;;;19.33;9.27;;;;;;;14.33;100.00;98526.34;5071574;28;20196;-64
2023/10/27 00:54:48;;;;;;;19.07;9.47;;;;;;;14.30;100.00;98518.81;5071686;28;20200;-64
2023/10/27 00:57:16;;;;;;;20.10;10.03;;;;;;;14.28;100.00;98498.75;5072038;28;20257;-64
2023/10/27 00:59:43;;;;;;;20.10;10.53;;;;;;;14.27;100.00;98499.81;5071882;28;20249;-64
2023/10/27 01:02:14;;;;;;;23.40;10.30;;;;;;;14.31;100.00;98507.09;5071497;28;20195;-64
2023/10/27 01:04:41;;;;;;;25.73;9.70;;;;;;;14.38;100.00;98507.72;5071670;28;20662;-64
2023/10/27 01:07:08;;;;;;;19.43;10.20;;;;;;;14.42;100.00;98503.50;5071956;28;20257;-64
2023/10/27 01:09:35;;;;;;;23.17;10.63;;;;;;;14.51;100.00;98503.91;5071540;28;20625;-64
2023/10/27 01:12:02;;;;;;;26.10;10.57;;;;;;;14.57;100.00;98517.09;5071597;28;20196;-64
2023/10/27 01:14:28;;;;;;;18.83;8.47;;;;;;;14.48;100.00;98509.75;5071866;28;20188;-64
2023/10/27 01:16:56;;;;;;;16.00;8.57;;;;;;;14.36;100.00;98501.81;5071489;28;20241;-64
2023/10/27 01:19:24;;;;;;;14.60;8.63;;;;;;;14.44;100.00;98508.63;5071657;28;20254;-64
2023/10/27 01:21:51;;;;;;;22.73;10.53;;;;;;;14.48;100.00;98510.56;5071594;28;20188;-64
2023/10/27 01:24:19;;;;;;;14.57;7.60;;;;;;;14.48;100.00;98502.53;5071380;28;20196;-63
2023/10/27 01:26:46;;;;;;;15.70;7.93;;;;;;;14.48;100.00;98507.88;5071892;28;20304;-63
2023/10/27 01:29:13;;;;;;;21.90;8.73;;;;;;;14.53;100.00;98515.16;5071695;28;20196;-64
2023/10/27 01:31:39;;;;;;;17.97;7.97;;;;;;;14.48;100.00;98510.56;5071537;28;20255;-64
2023/10/27 01:34:06;;;;;;;12.43;6.57;;;;;;;14.51;100.00;98512.75;5071746;28;20196;-64
2023/10/27 01:36:33;;;;;;;15.40;6.80;;;;;;;14.52;100.00;98518.88;5071435;28;20236;-64
2023/10/27 01:38:59;;;;;;;8.07;6.60;;;;;;;14.43;100.00;98507.81;5071513;28;20227;-64
2023/10/27 01:41:28;;;;;;;12.40;6.30;;;;;;;14.44;100.00;98512.09;5071381;28;20191;-63
2023/10/27 01:43:54;;;;;;;9.73;5.70;;;;;;;14.49;100.00;98504.16;5071460;28;20196;-64
2023/10/27 01:46:21;;;;;;;11.53;6.07;;;;;;;14.55;100.00;98503.16;5071270;28;20614;-63
2023/10/27 01:48:48;;;;;;;10.97;6.37;;;;;;;14.62;100.00;98498.47;5071438;28;20195;-64
2023/10/27 01:51:14;;;;;;;9.23;6.10;;;;;;;14.63;100.00;98493.94;5071321;28;20253;-63
2023/10/27 01:53:41;;;;;;;12.27;6.07;;;;;;;14.65;100.00;98492.63;5071453;28;20287;-64
2023/10/27 01:56:08;;;;;;;14.23;6.30;;;;;;;14.63;100.00;98500.06;5071198;28;20188;-63
2023/10/27 01:58:40;;;;;;;11.50;6.40;;;;;;;14.67;100.00;98495.84;5071343;28;20228;-64
2023/10/27 02:01:07;;;;;;;11.70;6.23;;;;;;;14.65;99.86;98481.94;5071313;28;20189;-63
2023/10/27 02:03:33;;;;;;;11.63;6.63;;;;;;;14.64;99.66;98500.91;5070991;28;20192;-64
2023/10/27 02:06:00;;;;;;;13.37;7.90;;;;;;;14.61;100.00;98514.75;5075343;28;20195;-64
2023/10/27 02:08:27;;;;;;;17.00;8.63;;;;;;;14.52;100.00;98511.69;5074615;28;20714;-64
2023/10/27 02:10:53;;;;;;;19.50;9.20;;;;;;;14.55;100.00;98511.19;5074718;28;20254;-65
2023/10/27 02:13:20;;;;;;;12.77;8.90;;;;;;;14.57;100.00;98516.28;5074832;28;20689;-64
2023/10/27 02:15:48;;;;;;;19.83;8.83;;;;;;;14.59;100.00;98525.66;5074994;28;20200;-64
2023/10/27 02:18:15;;;;;;;19.50;8.63;;;;;;;14.57;100.00;98526.97;5074421;28;20192;-63
2023/10/27 02:20:41;;;;;;;21.00;8.70;;;;;;;14.54;100.00;98528.28;5074555;28;20199;-63
2023/10/27 02:23:08;;;;;;;21.10;7.33;;;;;;;14.51;100.00;98515.44;5074922;28;20274;-63
2023/10/27 02:25:35;;;;;;;13.43;7.23;;;;;;;14.49;100.00;98520.19;5074816;28;20192;-64
2023/10/27 02:28:02;;;;;;;11.93;7.50;;;;;;;14.52;100.00;98514.38;5074483;28;20230;-63
2023/10/27 02:30:29;;;;;;;12.67;7.27;;;;;;;14.59;100.00;98514.19;5074720;28;20196;-63
2023/10/27 02:32:57;;;;;;;9.87;6.67;;;;;;;14.57;100.00;98522.44;5074383;28;20245;-64
2023/10/27 02:35:25;;;;;;;13.33;7.40;;;;;;;14.56;100.00;98520.00;5074611;28;20245;-63
2023/10/27 02:37:52;;;;;;;15.10;8.33;;;;;;;14.52;100.00;98522.38;5074372;28;20249;-63
2023/10/27 02:40:19;;;;;;;12.40;7.53;;;;;;;14.50;100.00;98511.13;5074297;28;20227;-63
2023/10/27 02:42:45;;;;;;;11.13;7.20;;;;;;;14.50;100.00;98511.13;5074172;28;20661;-63
2023/10/27 02:45:12;;;;;;;14.13;7.67;;;;;;;14.54;100.00;98512.25;5074444;28;20245;-62
2023/10/27 02:47:39;;;;;;;11.83;7.10;;;;;;;14.58;100.00;98494.66;5069785;28;20195;-65
2023/10/27 02:50:07;;;;;;;16.93;7.37;;;;;;;14.64;100.00;98501.72;5073635;28;20679;-63
2023/10/27 02:52:34;;;;;;;19.27;7.87;;;;;;;14.65;100.00;98497.16;5074094;28;20663;-64
2023/10/27 02:55:01;;;;;;;14.73;7.47;;;;;;;14.61;100.00;98488.00;5074275;28;20193;-64
2023/10/27 02:57:27;;;;;;;9.87;7.10;;;;;;;14.66;100.00;98490.78;5074015;28;20249;-64
2023/10/27 02:59:56;;;;;;;15.57;8.30;;;;;;;14.73;100.00;98492.22;5073708;28;20228;-64
2023/10/27 03:02:23;;;;;;;17.53;7.03;;;;;;;14.78;99.34;98500.28;5073895;28;20211;-64
2023/10/27 03:04:51;;;;;;;11.77;7.77;;;;;;;14.71;99.00;98491.63;5074104;28;20192;-63
2023/10/27 03:07:19;;;;;;;14.40;7.23;;;;;;;14.71;99.27;98496.19;5074416;28;20200;-64
2023/10/27 03:09:46;;;;;;;14.93;7.73;;;;;;;14.75;99.40;98491.97;5073686;28;20241;-63
2023/10/27 03:12:13;;;;;;;9.03;7.00;;;;;;;14.79;99.58;98503.78;5073864;28;20254;-63
2023/10/27 03:14:40;;;;;;;18.17;7.53;;;;;;;14.83;99.27;98502.25;5073687;28;20196;-64
2023/10/27 03:17:07;;;;;;;25.83;8.83;;;;;;;14.81;98.92;98507.00;5073333;28;20242;-63
2023/10/27 03:19:34;;;;;;;14.60;7.43;;;;;;;14.83;99.25;98503.03;5073327;28;20271;-63
2023/10/27 03:22:03;;;;;;;14.63;7.73;;;;;;;14.88;98.68;98497.78;5073861;28;20273;-63
2023/10/27 03:24:31;;;;;;;16.63;8.13;;;;;;;14.90;98.29;98501.00;5073411;28;20550;-63
2023/10/27 03:26:57;;;;;;;11.27;8.10;;;;;;;14.94;98.27;98503.97;5073188;28;20232;-63
2023/10/27 03:29:24;;;;;;;17.03;8.00;;;;;;;14.96;98.19;98500.00;5073755;28;20223;-63
2023/10/27 03:31:51;;;;;;;13.30;8.27;;;;;;;14.99;98.22;98502.19;5073516;28;20266;-63
2023/10/27 03:34:18;;;;;;;14.80;8.73;;;;;;;14.98;98.06;98503.25;5073737;28;20196;-63
2023/10/27 03:36:44;;;;;;;11.40;7.13;;;;;;;14.99;98.57;98504.84;5073145;28;20261;-64
2023/10/27 03:39:12;;;;;;;15.13;8.00;;;;;;;15.02;98.56;98500.88;5053007;28;20298;-63
2023/10/27 03:41:40;;;;;;;12.73;7.93;;;;;;;15.05;98.38;98503.06;5058863;28;20237;-63
2023/10/27 03:44:07;;;;;;;13.10;8.13;;;;;;;15.10;98.35;98501.25;5070827;28;20188;-62
2023/10/27 03:46:34;;;;;;;13.70;8.60;;;;;;;15.13;97.90;98500.75;5073212;28;20227;-63
2023/10/27 03:49:01;;;;;;;17.53;8.23;;;;;;;15.10;97.05;98506.59;5073128;28;20192;-63
2023/10/27 03:51:27;;;;;;;20.60;7.87;;;;;;;15.12;97.90;98515.19;5072467;28;20192;-63
2023/10/27 03:53:54;;;;;;;11.13;8.60;;;;;;;15.14;97.53;98506.91;5073036;28;20273;-63
2023/10/27 03:56:21;;;;;;;20.20;9.17;;;;;;;15.14;97.40;98510.41;5073066;28;20219;-62
2023/10/27 03:58:49;;;;;;;16.60;8.00;;;;;;;15.12;98.08;98488.44;5072535;28;20253;-62
2023/10/27 04:01:16;;;;;;;15.20;8.57;;;;;;;15.09;97.46;98483.59;5072695;28;20192;-62
2023/10/27 04:03:43;;;;;;;24.17;8.80;;;;;;;15.11;97.81;98491.38;5072831;28;20203;-63
2023/10/27 04:06:11;;;;;;;19.10;9.03;;;;;;;15.13;97.40;98487.41;5072437;28;20214;-63
2023/10/27 04:08:38;;;;;;;30.23;9.50;;;;;;;15.16;97.75;98484.19;5072173;28;20192;-64
2023/10/27 04:11:05;;;;;;;21.20;9.40;;;;;;;15.16;97.54;98480.72;5071988;28;20632;-63
2023/10/27 04:13:31;;;;;;;13.53;8.60;;;;;;;15.20;97.33;98489.88;5072351;28;20199;-63
2023/10/27 04:16:00;;;;;;;21.70;9.33;;;;;;;15.20;96.99;98493.34;5072481;28;20199;-64
2023/10/27 04:18:26;;;;;;;16.87;8.60;;;;;;;15.18;96.74;98487.44;5072577;28;20194;-63
2023/10/27 04:20:53;;;;;;;14.47;9.03;;;;;;;15.15;97.02;98487.94;5072247;28;20219;-64
2023/10/27 04:23:20;;;;;;;22.77;10.23;;;;;;;15.12;97.08;98483.06;5072286;28;20250;-63
2023/10/27 04:25:47;;;;;;;21.07;9.27;;;;;;;15.12;97.10;98476.94;5072518;28;20192;-63
2023/10/27 04:28:14;;;;;;;20.67;9.00;;;;;;;15.14;97.14;98486.31;5071753;28;20220;-63
2023/10/27 04:30:40;;;;;;;19.00;9.83;;;;;;;15.12;97.08;98476.94;5072212;28;20191;-63
2023/10/27 04:33:10;;;;;;;21.80;10.33;;;;;;;15.13;97.19;98476.69;5072168;28;20196;-63
2023/10/27 04:35:37;;;;;;;14.67;9.40;;;;;;;15.14;97.25;98486.31;5072018;28;20702;-64
2023/10/27 04:38:03;;;;;;;24.00;10.00;;;;;;;15.12;96.34;98472.38;5071746;28;20196;-63
2023/10/27 04:40:31;;;;;;;27.37;10.53;;;;;;;15.12;96.30;98467.03;5072138;28;20223;-63
2023/10/27 04:42:59;;;;;;;19.17;9.83;;;;;;;15.12;96.63;98455.53;5072276;28;20192;-64
2023/10/27 04:45:26;;;;;;;20.83;10.10;;;;;;;15.06;96.49;98456.53;5071865;28;20200;-63
2023/10/27 04:47:53;;;;;;;21.03;10.80;;;;;;;15.03;96.75;98467.75;5072172;28;20238;-65
2023/10/27 04:50:21;;;;;;;22.87;11.93;;;;;;;15.03;97.23;98463.19;5071798;28;20235;-64
2023/10/27 04:52:48;;;;;;;17.70;10.10;;;;;;;15.05;97.08;98471.78;5071436;28;20625;-63
2023/10/27 04:55:15;;;;;;;22.53;10.73;;;;;;;15.07;96.78;98479.56;5072093;28;20257;-63
2023/10/27 04:57:42;;;;;;;26.67;11.10;;;;;;;15.02;96.37;98493.66;5071228;28;20184;-63
2023/10/27 05:00:09;;;;;;;30.67;11.93;;;;;;;14.95;96.74;98479.66;5071791;28;20222;-63
2023/10/27 05:02:36;;;;;;;34.13;12.70;;;;;;;14.99;97.22;98480.00;5071565;28;20663;-64
2023/10/27 05:05:03;;;;;;;32.47;14.73;;;;;;;14.99;97.38;98472.75;5071894;28;20253;-64
2023/10/27 05:07:31;;;;;;;36.93;18.93;;;;;;;14.96;96.61;98478.59;5071117;28;20265;-63
2023/10/27 05:09:58;;;;;;;65.37;26.03;;;;;;;14.92;97.07;98480.19;5071554;28;20260;-64
2023/10/27 05:12:26;;;;;;;108.77;75.43;;;;;;;14.98;97.68;98481.03;5071896;28;20541;-64
2023/10/27 05:14:54;;;;;;;130.67;82.23;;;;;;;15.13;97.51;98479.38;5071898;28;20200;-65
2023/10/27 05:17:20;;;;;;;123.57;81.13;;;;;;;15.27;96.28;98480.59;5071036;28;20184;-65
2023/10/27 05:19:48;;;;;;;117.03;66.17;;;;;;;15.46;96.38;98473.88;5071292;28;20281;-65
2023/10/27 05:22:14;;;;;;;91.17;50.87;;;;;;;15.67;95.61;98475.69;5071190;28;20667;-65
2023/10/27 05:24:42;;;;;;;51.47;28.90;;;;;;;15.89;95.35;98484.47;5071641;28;20249;-65
2023/10/27 05:27:09;;;;;;;43.23;23.27;;;;;;;16.04;93.35;98485.69;5070933;28;20262;-64
2023/10/27 05:29:36;;;;;;;58.73;28.87;;;;;;;16.13;92.24;98492.97;5070164;28;20200;-65
2023/10/27 05:32:03;;;;;;;48.73;21.33;;;;;;;16.28;92.72;98486.91;5070931;28;20276;-64
2023/10/27 05:34:30;;;;;;;28.37;13.83;;;;;;;16.42;91.18;98504.22;5070808;28;20743;-65
2023/10/27 05:36:56;;;;;;;30.50;12.23;;;;;;;16.52;90.08;98496.25;5070863;28;20253;-65
2023/10/27 05:39:26;;;;;;;35.27;14.50;;;;;;;16.47;88.53;98501.56;5071953;28;20196;-64
2023/10/27 05:41:54;;;;;;;42.50;15.50;;;;;;;16.51;90.25;98503.50;5074558;28;20192;-66
2023/10/27 05:44:21;;;;;;;34.33;16.53;;;;;;;16.72;91.14;98505.22;5075099;28;20199;-66
2023/10/27 05:46:48;;;;;;;34.83;14.73;;;;;;;16.91;89.04;98508.28;5075211;28;20245;-68
2023/10/27 05:49:14;;;;;;;34.70;15.53;;;;;;;17.27;93.06;98507.41;5074467;28;20191;-67
2023/10/27 05:51:41;;;;;;;47.83;19.00;;;;;;;17.86;88.68;98514.03;5074791;28;20671;-67
2023/10/27 05:54:08;;;;;;;24.67;12.70;;;;;;;17.95;83.49;98531.22;5071618;28;20199;-66
2023/10/27 05:56:34;;;;;;;27.73;13.33;;;;;;;18.15;85.05;98520.50;5074211;28;20207;-66
2023/10/27 05:59:04;;;;;;;27.73;11.63;;;;;;;18.64;87.83;98513.53;5074169;28;20252;-66
2023/10/27 06:01:32;;;;;;;25.43;12.70;;;;;;;19.16;79.52;98532.78;5073554;28;20271;-65
2023/10/27 06:03:59;;;;;;;26.30;12.70;;;;;;;19.13;77.43;98538.72;5074367;28;20198;-66
2023/10/27 06:06:27;;;;;;;24.37;12.30;;;;;;;19.38;82.47;98519.78;5074194;28;20245;-65
2023/10/27 06:08:54;;;;;;;29.40;11.87;;;;;;;19.87;79.81;98507.13;5073483;28;20226;-66
2023/10/27 06:11:21;;;;;;;21.67;11.17;;;;;;;20.21;73.28;98518.78;5072373;28;20200;-65
2023/10/27 06:13:48;;;;;;;30.20;10.57;;;;;;;20.60;75.53;98506.03;5073635;28;20187;-65
2023/10/27 06:16:16;;;;;;;29.20;11.17;;;;;;;21.02;74.08;98514.28;5070769;28;20188;-65
2023/10/27 06:18:43;;;;;;;21.10;11.20;;;;;;;21.33;71.33;98514.72;5072974;28;20620;-63
2023/10/27 06:21:09;;;;;;;20.57;9.63;;;;;;;21.54;69.76;98516.88;5073790;28;20231;-65
2023/10/27 06:23:36;;;;;;;21.17;9.63;;;;;;;21.70;68.54;98531.00;5073726;28;20368;-64
2023/10/27 06:26:04;;;;;;;26.03;11.50;;;;;;;21.50;66.64;98532.06;5070181;28;20200;-67
2023/10/27 06:28:31;;;;;;;30.30;11.00;;;;;;;21.47;69.27;98532.66;5072918;28;20227;-63
2023/10/27 06:30:57;;;;;;;22.63;9.27;;;;;;;21.63;68.70;98533.25;5072642;28;20196;-64
2023/10/27 06:33:27;;;;;;;24.77;9.40;;;;;;;21.65;66.95;98536.47;5072985;28;20620;-65
2023/10/27 06:35:54;;;;;;;26.90;10.87;;;;;;;21.84;66.43;98532.72;5073238;28;20228;-64
2023/10/27 06:38:21;;;;;;;18.80;8.83;;;;;;;22.17;66.52;98533.59;5072843;28;20188;-65
2023/10/27 06:40:48;;;;;;;16.07;7.97;;;;;;;22.54;64.73;98545.19;5073236;28;20211;-64
2023/10/27 06:43:14;;;;;;;20.77;8.50;;;;;;;22.75;63.95;98535.63;5072866;28;20192;-65
2023/10/27 06:45:42;;;;;;;22.13;8.60;;;;;;;23.06;62.08;98531.25;5073503;28;20253;-64
2023/10/27 06:48:09;;;;;;;28.50;9.47;;;;;;;23.25;62.82;98526.59;5072868;28;20621;-65
2023/10/27 06:50:36;;;;;;;23.77;8.53;;;;;;;23.57;61.92;98520.25;5072624;28;20239;-65
2023/10/27 06:53:03;;;;;;;21.90;9.10;;;;;;;23.90;60.26;98522.50;5072959;28;20673;-64
2023/10/27 06:55:30;;;;;;;21.63;11.13;;;;;;;24.15;57.06;98535.50;5072084;28;20280;-64
2023/10/27 06:57:56;;;;;;;21.33;9.43;;;;;;;24.46;59.19;98525.50;5072134;28;20246;-64
2023/10/27 07:00:27;;;;;;;18.77;8.60;;;;;;;24.75;58.54;98527.81;5072564;28;20214;-64
2023/10/27 07:02:56;;;;;;;23.43;10.43;;;;;;;24.64;55.13;98527.28;5073409;28;20294;-64
2023/10/27 07:05:24;;;;;;;21.27;9.23;;;;;;;24.58;57.11;98542.06;5072447;28;20195;-64
2023/10/27 07:07:54;;;;;;;24.50;8.93;;;;;;;24.50;56.10;98521.06;5071818;28;20191;-64
2023/10/27 07:10:21;;;;;;;21.57;8.60;;;;;;;24.30;56.49;98510.69;5072030;28;20196;-62
2023/10/27 07:12:48;;;;;;;19.00;8.47;;;;;;;24.18;57.97;98507.75;5072713;28;20192;-62
2023/10/27 07:15:14;;;;;;;20.90;9.00;;;;;;;24.13;57.07;98505.16;5072721;28;20198;-62
2023/10/27 07:17:41;;;;;;;20.33;8.80;;;;;;;24.10;57.54;98503.03;5071506;28;20199;-61
2023/10/27 07:20:09;;;;;;;18.47;9.00;;;;;;;24.13;58.09;98507.88;5072127;28;20247;-65
2023/10/27 07:22:36;;;;;;;20.47;9.60;;;;;;;24.19;57.97;98497.69;5071888;28;20199;-63
2023/10/27 07:25:05;;;;;;;20.43;9.10;;;;;;;24.38;58.93;98496.38;5072097;28;20198;-63
2023/10/27 07:27:32;;;;;;;25.90;10.03;;;;;;;24.48;58.12;98489.91;5067077;28;21105;-63
2023/10/27 07:29:59;;;;;;;20.97;10.13;;;;;;;24.34;56.42;98500.84;5070166;28;20195;-63
2023/10/27 07:32:25;;;;;;;20.47;8.97;;;;;;;23.93;58.34;98500.19;5070745;28;20280;-64
2023/10/27 07:34:52;;;;;;;14.43;8.67;;;;;;;23.90;58.64;98491.84;5070250;28;20261;-61
2023/10/27 07:37:20;;;;;;;20.13;8.97;;;;;;;24.07;58.10;98505.59;5072354;28;20253;-63
2023/10/27 07:39:47;;;;;;;16.37;9.30;;;;;;;24.10;58.40;98500.34;5066312;28;20281;-63
2023/10/27 07:42:15;;;;;;;28.53;10.20;;;;;;;23.76;57.76;98505.44;5069999;28;20225;-63
2023/10/27 07:44:42;;;;;;;24.03;10.70;;;;;;;23.37;59.22;98502.50;5070221;28;20264;-62
2023/10/27 07:47:09;;;;;;;30.60;10.80;;;;;;;23.31;59.58;98498.28;5070751;28;20245;-61
2023/10/27 07:49:35;;;;;;;25.37;10.40;;;;;;;23.36;59.47;98484.63;5071619;28;20188;-61
2023/10/27 07:52:03;;;;;;;26.83;11.37;;;;;;;23.29;60.09;98484.25;5072014;28;20689;-61
2023/10/27 07:54:29;;;;;;;19.00;8.70;;;;;;;23.32;61.68;98477.41;5070944;28;20291;-63
2023/10/27 07:56:56;;;;;;;29.10;11.73;;;;;;;23.43;60.20;98474.16;5070379;28;20187;-61
2023/10/27 07:59:24;;;;;;;25.07;10.77;;;;;;;23.39;60.08;98469.66;5071600;28;20189;-59
2023/10/27 08:01:52;;;;;;;26.13;11.63;;;;;;;23.26;60.64;98471.28;5069060;28;20228;-58
2023/10/27 08:04:20;;;;;;;26.83;11.60;;;;;;;23.23;60.86;98471.09;5066535;28;20288;-59
2023/10/27 08:06:47;;;;;;;27.73;11.70;;;;;;;23.13;61.58;98471.25;5071524;28;20276;-59
2023/10/27 08:09:14;;;;;;;24.70;11.17;;;;;;;23.07;61.89;98467.84;5071325;28;20224;-60
2023/10/27 08:11:40;;;;;;;21.70;10.67;;;;;;;23.06;61.43;98465.44;5069686;28;20613;-60
2023/10/27 08:14:07;;;;;;;24.77;9.77;;;;;;;22.93;61.69;98452.69;5069814;28;20259;-61
2023/10/27 08:16:36;;;;;;;25.97;10.17;;;;;;;22.93;62.04;98455.41;5066265;28;20196;-60
2023/10/27 08:19:03;;;;;;;17.43;9.20;;;;;;;22.76;61.86;98458.72;5071304;28;20266;-61
2023/10/27 08:21:29;;;;;;;24.90;8.87;;;;;;;22.68;62.31;98447.78;5055821;28;20216;-60
2023/10/27 08:23:56;;;;;;;15.47;7.80;;;;;;;22.61;62.35;98442.75;5067636;28;20201;-61
2023/10/27 08:26:23;;;;;;;19.80;8.43;;;;;;;22.55;62.27;98441.25;5070129;28;20257;-61
2023/10/27 08:28:49;;;;;;;20.17;9.17;;;;;;;22.18;63.63;98441.34;5069817;28;20238;-59
2023/10/27 08:31:17;;;;;;;18.43;8.50;;;;;;;22.05;64.32;98431.25;5070975;28;20200;-58
2023/10/27 08:33:45;;;;;;;13.20;7.37;;;;;;;22.15;64.04;98452.75;5071335;28;20726;-59
2023/10/27 08:36:12;;;;;;;17.53;8.10;;;;;;;22.13;63.98;98443.31;5066642;28;20249;-58
2023/10/27 08:38:38;;;;;;;12.37;7.00;;;;;;;22.13;63.40;98432.50;5069526;28;20291;-59
2023/10/27 08:41:07;;;;;;;12.77;6.27;;;;;;;22.25;63.83;98427.44;5067996;28;20282;-59
2023/10/27 08:43:35;;;;;;;14.43;7.37;;;;;;;22.34;63.19;98431.84;5070344;28;20283;-59
2023/10/27 08:46:04;;;;;;;13.03;6.80;;;;;;;22.38;62.69;98435.56;5070888;28;20286;-58
2023/10/27 08:48:31;;;;;;;11.20;7.43;;;;;;;22.42;62.77;98431.16;5071062;28;20227;-60
2023/10/27 08:51:04;;;;;;;13.50;6.80;;;;;;;22.52;62.80;98420.19;5070925;28;20191;-60
2023/10/27 08:53:30;;;;;;;12.07;7.07;;;;;;;22.64;62.14;98420.50;5071299;28;20184;-59
2023/10/27 08:55:58;;;;;;;16.23;6.47;;;;;;;22.90;61.92;98421.59;5070625;28;20234;-59
2023/10/27 08:58:24;;;;;;;19.77;7.57;;;;;;;23.29;61.45;98419.19;5071087;28;20196;-60
2023/10/27 09:00:51;;;;;;;12.57;6.90;;;;;;;23.59;59.36;98417.69;5071027;28;20225;-60
2023/10/27 09:03:19;;;;;;;12.57;6.23;;;;;;;23.77;58.69;98420.25;5071062;28;20209;-59
2023/10/27 09:05:46;;;;;;;11.43;6.77;;;;;;;23.94;57.09;98425.81;5071035;28;20197;-59
2023/10/27 09:08:14;;;;;;;13.00;6.23;;;;;;;23.96;57.88;98423.63;5070451;28;20247;-59
2023/10/27 09:10:40;;;;;;;15.97;7.00;;;;;;;24.17;57.09;98430.16;5069906;28;20242;-60
2023/10/27 09:13:09;;;;;;;10.73;7.17;;;;;;;24.43;56.56;98427.59;5068444;28;20739;-60
2023/10/27 09:15:44;;;;;;;18.63;7.43;;;;;;;24.66;55.64;98426.44;5066889;28;20252;-59
2023/10/27 09:18:11;;;;;;;17.20;7.53;;;;;;;24.91;54.42;98423.84;5069235;28;20679;-59
2023/10/27 09:20:48;;;;;;;17.37;7.43;;;;;;;24.98;54.62;98417.16;5067104;28;20249;-59
2023/10/27 09:23:16;;;;;;;17.83;7.67;;;;;;;24.93;53.91;98423.53;5069495;28;20199;-59
2023/10/27 09:25:43;;;;;;;11.33;7.57;;;;;;;24.94;54.51;98411.53;5071084;28;20570;-59
2023/10/27 09:28:11;;;;;;;12.90;7.93;;;;;;;25.04;54.60;98398.47;5071484;28;20261;-59
2023/10/27 09:30:39;;;;;;;14.53;8.10;;;;;;;25.33;53.78;98402.56;5070864;28;20191;-58
2023/10/27 09:33:14;;;;;;;17.27;7.03;;;;;;;25.52;53.10;98405.78;5057077;28;20223;-59
2023/10/27 09:35:41;;;;;;;18.63;7.83;;;;;;;25.45;52.41;98400.00;5070392;28;20531;-60
2023/10/27 09:38:08;;;;;;;20.53;8.10;;;;;;;25.28;53.45;98381.78;5064883;28;20265;-59
2023/10/27 09:40:38;;;;;;;16.23;7.67;;;;;;;25.34;53.31;98387.81;5070419;28;20696;-60
2023/10/27 09:43:08;;;;;;;18.10;7.60;;;;;;;25.39;53.12;98384.97;5070239;28;20275;-60
2023/10/27 09:45:37;;;;;;;16.50;6.63;;;;;;;25.40;52.45;98386.56;5057463;28;20751;-68
2023/10/27 09:48:06;;;;;;;12.37;6.47;;;;;;;25.43;54.51;98392.16;5069380;28;20196;-65
2023/10/27 09:50:33;;;;;;;20.13;7.13;;;;;;;25.49;53.72;98376.50;5069933;28;20231;-66
2023/10/27 09:53:01;;;;;;;15.77;6.33;;;;;;;25.51;54.70;98383.22;5070662;28;20659;-65
2023/10/27 09:55:30;;;;;;;24.43;6.83;;;;;;;25.52;53.88;98378.59;5070277;28;20204;-65
2023/10/27 09:58:01;;;;;;;10.00;6.60;;;;;;;25.52;52.79;98378.59;5069696;28;20687;-65
2023/10/27 10:00:31;;;;;;;13.70;6.70;;;;;;;25.53;53.11;98380.19;5069648;28;20673;-64
2023/10/27 10:02:59;;;;;;;20.67;7.60;;;;;;;25.36;52.75;98380.16;5068342;28;20204;-66
2023/10/27 10:05:26;;;;;;;21.50;6.37;;;;;;;25.40;53.72;98375.69;5070664;28;20604;-63
2023/10/27 10:07:54;;;;;;;13.07;6.10;;;;;;;25.58;52.84;98364.50;5070443;28;20577;-66
2023/10/27 10:10:22;;;;;;;16.03;5.73;;;;;;;25.76;52.26;98365.31;5070282;28;20188;-71
2023/10/27 10:13:08;;;;;;;13.03;6.93;;;;;;;25.76;51.45;98363.34;5069242;28;20816;-64
2023/10/27 10:15:36;;;;;;;13.37;6.07;;;;;;;25.67;52.54;98359.03;5049828;28;20655;-65
2023/10/27 10:18:04;;;;;;;11.20;5.97;;;;;;;25.70;51.05;98348.34;5067642;28;20196;-65
2023/10/27 10:20:58;;;;;;;11.07;6.20;;;;;;;25.64;52.69;98332.50;5069967;28;20258;-65
2023/10/27 10:24:10;;;;;;;19.30;7.67;;;;;;;25.55;53.63;98315.41;5045344;28;20279;-65
2023/10/27 10:27:10;;;;;;;13.97;6.70;;;;;;;25.37;53.75;98321.94;5032869;28;20249;-65
2023/10/27 10:29:38;;;;;;;18.20;7.47;;;;;;;25.29;53.21;98325.47;5073899;28;20192;-69
2023/10/27 10:32:33;;;;;;;17.13;7.73;;;;;;;25.13;53.76;98321.56;5071733;28;20200;-65
2023/10/27 10:35:22;;;;;;;14.47;6.70;;;;;;;24.92;54.20;98319.47;5073665;28;20191;-65
2023/10/27 10:37:52;;;;;;;17.20;7.07;;;;;;;24.77;54.50;98295.50;5074154;28;20292;-67
2023/10/27 10:40:24;;;;;;;30.37;8.60;;;;;;;24.72;55.38;98290.22;5073535;28;20199;-66
2023/10/27 10:43:23;;;;;;;21.03;7.13;;;;;;;24.78;55.36;98293.56;5072557;28;20223;-67
2023/10/27 10:45:53;;;;;;;20.07;6.70;;;;;;;24.98;56.51;98284.03;5072909;28;20196;-65
2023/10/27 10:48:20;;;;;;;56.77;9.03;;;;;;;25.05;52.99;98279.69;5073106;28;20188;-65
2023/10/27 10:50:48;;;;;;;26.87;7.70;;;;;;;25.02;53.25;98278.41;5073416;28;20257;-67
2023/10/27 10:53:17;;;;;;;9.10;5.47;;;;;;;25.15;55.34;98278.59;5073721;28;20192;-64
2023/10/27 10:55:45;;;;;;;9.60;5.20;;;;;;;25.35;54.33;98294.28;5073799;28;20290;-65
2023/10/27 10:58:12;;;;;;;16.90;6.00;;;;;;;25.49;54.11;98303.06;5073533;28;20284;-63
2023/10/27 11:00:38;;;;;;;13.90;6.03;;;;;;;25.64;53.73;98305.31;5072893;28;20664;-66
2023/10/27 11:03:11;;;;;;;16.03;5.43;;;;;;;25.76;53.22;98308.16;5072945;28;20224;-65
2023/10/27 11:05:37;;;;;;;15.97;5.87;;;;;;;25.85;51.91;98303.50;5076915;28;20253;-65
2023/10/27 11:08:05;;;;;;;11.63;5.90;;;;;;;25.90;52.69;98292.44;5075398;28;20634;-65
2023/10/27 11:10:33;;;;;;;15.07;5.13;;;;;;;26.00;52.90;98297.56;5073049;28;20273;-64
2023/10/27 11:13:04;;;;;;;16.57;5.17;;;;;;;26.01;51.68;98299.16;5072290;28;20279;-64
2023/10/27 11:15:48;;;;;;;10.53;5.53;;;;;;;26.05;51.78;98306.34;5073158;28;20249;-66
2023/10/27 11:18:17;;;;;;;8.67;5.60;;;;;;;25.93;51.87;98305.41;5073313;28;20295;-66
2023/10/27 11:20:44;;;;;;;10.73;4.93;;;;;;;25.85;50.88;98307.00;5072235;28;20203;-64
2023/10/27 11:23:13;;;;;;;17.20;5.13;;;;;;;25.72;51.51;98308.00;5073115;28;20215;-65
2023/10/27 11:25:40;;;;;;;12.97;5.00;;;;;;;25.56;51.75;98306.13;5072653;28;21045;-66